Time;durP1;ratioP1;P1;durP2;ratioP2;P2;SDS_P1;SDS_P2;PMS_P1;PMS_P2;Temp;Humidity;BMP_temperature;BMP_pressure;BME280_temperature;BME280_humidity;BME280_pressure;Samples;Min_cycle;Max_cycle;Signal;HPM_P1;HPM_P2
2022/04/06 00:01:14;;;;;;;3.35;0.90;;;-2.90;99.90;;;;;;5073302;28;20405;-87
2022/04/06 00:03:43;;;;;;;3.15;1.08;;;-3.00;99.90;;;;;;5046654;28;20410;-87
2022/04/06 00:06:11;;;;;;;3.42;1.10;;;-3.00;99.90;;;;;;5073055;28;20923;-87
2022/04/06 00:08:38;;;;;;;3.83;1.17;;;-2.90;99.90;;;;;;5056519;28;20489;-87
2022/04/06 00:11:06;;;;;;;3.28;1.08;;;-2.90;99.90;;;;;;5073095;28;20394;-86
2022/04/06 00:13:34;;;;;;;2.10;1.05;;;-2.90;99.90;;;;;;5073237;28;20417;-86
2022/04/06 00:16:02;;;;;;;3.35;1.27;;;-3.00;99.90;;;;;;5056205;28;20386;-87
2022/04/06 00:18:30;;;;;;;2.70;0.85;;;-2.90;99.90;;;;;;5072935;28;20464;-87
2022/04/06 00:20:57;;;;;;;1.95;0.90;;;-2.90;99.90;;;;;;5056119;28;20493;-86
2022/04/06 00:23:25;;;;;;;2.78;1.00;;;-3.00;99.90;;;;;;5039504;28;20390;-87
2022/04/06 00:25:55;;;;;;;4.10;1.20;;;-3.10;99.90;;;;;;5072795;28;20409;-86
2022/04/06 00:28:23;;;;;;;2.97;1.10;;;-3.00;99.90;;;;;;5039503;28;20394;-86
2022/04/06 00:30:51;;;;;;;3.00;0.90;;;-2.90;99.90;;;;;;5055909;28;20404;-86
2022/04/06 00:33:19;;;;;;;4.43;1.08;;;-2.90;99.90;;;;;;5039452;28;20394;-86
2022/04/06 00:35:47;;;;;;;3.23;1.00;;;-3.00;99.90;;;;;;5072625;28;20393;-86
2022/04/06 00:38:15;;;;;;;2.87;1.30;;;-2.90;99.90;;;;;;5056014;28;20888;-86
2022/04/06 00:40:43;;;;;;;2.72;1.10;;;-2.90;99.90;;;;;;5072468;28;20469;-86
2022/04/06 00:43:13;;;;;;;3.30;1.17;;;-2.90;99.90;;;;;;5055800;28;20911;-86
2022/04/06 00:45:43;;;;;;;2.38;0.88;;;-3.00;99.90;;;;;;5072393;28;20394;-85
2022/04/06 00:48:11;;;;;;;2.90;1.00;;;-2.90;99.90;;;;;;5072525;28;20405;-87
2022/04/06 00:50:41;;;;;;;4.25;1.23;;;-2.90;99.90;;;;;;5055513;28;20386;-86
2022/04/06 00:53:13;;;;;;;3.13;1.23;;;-2.80;99.90;;;;;;5055477;28;20390;-86
2022/04/06 00:55:41;;;;;;;3.15;1.30;;;-2.70;99.90;;;;;;5055796;28;20390;-86
2022/04/06 00:58:09;;;;;;;4.53;1.00;;;-2.80;99.90;;;;;;5072534;28;20393;-86
2022/04/06 01:00:36;;;;;;;3.10;1.08;;;-2.70;99.90;;;;;;5055487;28;20414;-86
2022/04/06 01:03:04;;;;;;;4.90;1.10;;;-2.80;99.90;;;;;;5055114;28;20956;-87
2022/04/06 01:05:32;;;;;;;3.72;1.30;;;-2.80;99.90;;;;;;5055260;28;20406;-86
2022/04/06 01:08:01;;;;;;;3.00;1.00;;;-2.80;99.90;;;;;;5073159;28;20390;-86
2022/04/06 01:10:29;;;;;;;3.38;1.10;;;-2.90;99.90;;;;;;5071995;28;20386;-86
2022/04/06 01:12:57;;;;;;;3.30;1.20;;;-2.90;99.90;;;;;;5055376;28;20390;-86
2022/04/06 01:15:26;;;;;;;2.90;0.95;;;-3.00;99.90;;;;;;5071892;28;20477;-85
2022/04/06 01:17:53;;;;;;;3.30;1.17;;;-3.00;99.90;;;;;;5073028;28;20394;-86
2022/04/06 01:20:21;;;;;;;3.50;1.00;;;-2.90;99.90;;;;;;5055113;28;20477;-85
2022/04/06 01:22:49;;;;;;;5.03;1.17;;;-2.90;99.90;;;;;;5071709;28;20386;-86
2022/04/06 01:25:17;;;;;;;3.05;1.10;;;-2.90;99.90;;;;;;5054888;28;20402;-86
2022/04/06 01:27:44;;;;;;;4.68;1.40;;;-2.90;99.90;;;;;;5071407;28;20406;-86
2022/04/06 01:30:12;;;;;;;2.13;1.03;;;-2.90;99.90;;;;;;5054770;28;20413;-86
2022/04/06 01:32:40;;;;;;;3.72;1.10;;;-2.90;99.90;;;;;;5054841;28;20397;-86
2022/04/06 01:35:08;;;;;;;2.80;1.13;;;-2.90;99.90;;;;;;5071512;28;20508;-85
2022/04/06 01:37:36;;;;;;;3.28;1.00;;;-2.90;99.90;;;;;;5054791;28;20401;-86
2022/04/06 01:40:05;;;;;;;4.00;1.08;;;-2.90;99.90;;;;;;5054751;28;20880;-86
2022/04/06 01:42:33;;;;;;;4.10;0.90;;;-2.90;99.90;;;;;;5073572;28;20411;-86
2022/04/06 01:45:01;;;;;;;2.75;0.98;;;-2.90;99.90;;;;;;5061439;28;20400;-86
2022/04/06 01:47:28;;;;;;;3.50;1.00;;;-2.90;99.90;;;;;;5074536;28;20424;-86
2022/04/06 01:52:42;;;;;;;3.75;0.93;;;-2.70;99.90;;;;;;5074525;28;20400;-86
2022/04/06 01:55:13;;;;;;;3.17;1.07;;;-2.70;99.90;;;;;;5092458;28;20425;-86
2022/04/06 01:57:43;;;;;;;4.20;1.10;;;-2.70;99.90;;;;;;5074592;28;20384;-86
2022/04/06 02:00:15;;;;;;;3.30;1.35;;;-2.60;99.90;;;;;;5074387;28;20393;-86
2022/04/06 02:02:53;;;;;;;2.85;1.40;;;-2.60;99.90;;;;;;5074204;28;20388;-86
2022/04/06 02:05:21;;;;;;;5.78;1.70;;;-2.60;99.90;;;;;;5074623;28;20795;-85
2022/04/06 02:07:50;;;;;;;2.85;1.30;;;-2.50;99.90;;;;;;5057781;28;20460;-86
2022/04/06 02:10:18;;;;;;;3.80;1.20;;;-2.40;99.90;;;;;;5091016;28;20390;-86
2022/04/06 02:12:47;;;;;;;3.88;1.40;;;-2.40;99.90;;;;;;5091080;28;20496;-87
2022/04/06 02:15:15;;;;;;;3.97;1.25;;;-2.30;99.90;;;;;;5074024;28;20483;-87
2022/04/06 02:17:43;;;;;;;3.15;1.20;;;-2.20;99.90;;;;;;5057597;28;20477;-86
2022/04/06 02:20:11;;;;;;;2.40;1.20;;;-2.20;99.90;;;;;;5091008;28;20400;-86
2022/04/06 02:22:41;;;;;;;2.07;0.97;;;-2.10;99.90;;;;;;5074199;28;20453;-86
2022/04/06 02:25:12;;;;;;;1.92;0.98;;;-2.10;99.90;;;;;;5090926;28;20404;-86
2022/04/06 02:27:50;;;;;;;2.78;1.08;;;-2.10;99.90;;;;;;5074213;28;20396;-87
2022/04/06 02:30:20;;;;;;;2.35;1.00;;;-2.10;99.90;;;;;;5073590;28;20384;-86
2022/04/06 02:32:48;;;;;;;1.85;1.00;;;-2.10;99.90;;;;;;5073979;28;20467;-86
2022/04/06 02:35:15;;;;;;;2.92;1.00;;;-2.10;99.90;;;;;;5073232;28;20475;-86
2022/04/06 02:37:44;;;;;;;3.20;1.10;;;-2.10;99.90;;;;;;5054091;28;20382;-86
2022/04/06 02:40:13;;;;;;;2.22;0.90;;;-2.00;99.90;;;;;;5053789;28;20432;-86
2022/04/06 02:42:42;;;;;;;1.77;1.00;;;-2.10;99.90;;;;;;5037438;28;20456;-87
2022/04/06 02:45:10;;;;;;;2.03;1.00;;;-2.10;99.90;;;;;;5070449;28;20386;-87
2022/04/06 02:47:45;;;;;;;3.33;1.10;;;-2.10;99.90;;;;;;5038257;28;20391;-86
2022/04/06 02:50:12;;;;;;;3.25;1.10;;;-2.10;99.90;;;;;;5053992;28;20385;-86
2022/04/06 02:52:40;;;;;;;2.05;1.00;;;-2.10;99.90;;;;;;5037236;28;20469;-86
2022/04/06 02:55:12;;;;;;;2.30;1.10;;;-2.20;99.90;;;;;;5070478;28;20567;-87
2022/04/06 02:57:44;;;;;;;2.17;1.00;;;-2.10;99.90;;;;;;5053974;28;20388;-86
2022/04/06 03:00:14;;;;;;;2.25;0.95;;;-2.20;99.90;;;;;;5055427;28;20389;-87
2022/04/06 03:02:42;;;;;;;1.83;0.90;;;-2.20;99.90;;;;;;5107365;28;20392;-86
2022/04/06 03:05:10;;;;;;;2.05;1.02;;;-2.10;99.90;;;;;;5090671;28;20392;-87
2022/04/06 03:07:39;;;;;;;2.13;1.00;;;-2.10;99.90;;;;;;5090603;28;20821;-87
2022/04/06 03:10:08;;;;;;;4.07;1.10;;;-2.10;99.90;;;;;;5090596;28;20817;-87
2022/04/06 03:12:36;;;;;;;2.90;1.10;;;-2.10;99.90;;;;;;5090388;28;20396;-87
2022/04/06 03:15:04;;;;;;;2.17;0.80;;;-2.10;99.90;;;;;;5107259;28;20384;-87
2022/04/06 03:17:32;;;;;;;3.92;0.90;;;-2.10;99.90;;;;;;5090607;28;20416;-87
2022/04/06 03:20:01;;;;;;;1.10;0.70;;;-2.10;99.90;;;;;;5090889;28;20400;-87
2022/04/06 03:22:29;;;;;;;1.60;0.80;;;-2.10;99.90;;;;;;5087531;28;20864;-86
2022/04/06 03:24:57;;;;;;;1.48;0.82;;;-2.10;99.90;;;;;;5104249;28;20423;-85
2022/04/06 03:27:25;;;;;;;1.80;0.70;;;-2.10;99.90;;;;;;5092646;28;20408;-86
2022/04/06 03:29:53;;;;;;;2.00;0.70;;;-2.10;99.90;;;;;;5095256;28;20468;-87
2022/04/06 03:32:20;;;;;;;1.58;0.77;;;-2.10;99.90;;;;;;5077163;28;20723;-85
2022/04/06 03:34:48;;;;;;;1.47;0.70;;;-2.20;99.90;;;;;;5077069;28;20393;-85
2022/04/06 03:37:15;;;;;;;1.08;0.60;;;-2.20;99.90;;;;;;5093927;28;20400;-87
2022/04/06 03:39:43;;;;;;;0.77;0.55;;;-2.30;99.90;;;;;;5093746;28;20838;-87
2022/04/06 03:42:11;;;;;;;1.08;0.50;;;-2.30;99.90;;;;;;5093908;28;20423;-88
2022/04/06 03:44:38;;;;;;;1.38;0.70;;;-2.40;99.90;;;;;;5093693;28;20482;-88
2022/04/06 03:47:06;;;;;;;1.30;0.60;;;-2.40;99.90;;;;;;5076868;28;20393;-87
2022/04/06 03:49:34;;;;;;;1.40;0.70;;;-2.50;99.90;;;;;;5076864;28;20407;-87
2022/04/06 03:52:02;;;;;;;1.42;0.50;;;-2.50;99.90;;;;;;5094858;28;20454;-88
2022/04/06 03:54:29;;;;;;;2.10;0.65;;;-2.50;99.90;;;;;;5087375;28;20398;-87
2022/04/06 03:56:57;;;;;;;2.03;0.63;;;-2.50;99.90;;;;;;5076926;28;20431;-86
2022/04/06 03:59:25;;;;;;;1.70;0.55;;;-2.50;99.90;;;;;;5076632;28;20416;-87
2022/04/06 04:01:53;;;;;;;1.25;0.57;;;-2.50;99.90;;;;;;5070348;28;20542;-87
2022/04/06 04:04:20;;;;;;;1.55;0.70;;;-2.60;99.90;;;;;;5092134;28;20405;-87
2022/04/06 04:06:48;;;;;;;2.03;0.70;;;-2.60;99.90;;;;;;5059445;28;20446;-87
2022/04/06 04:09:16;;;;;;;1.58;0.70;;;-2.50;99.90;;;;;;5086529;28;20405;-86
2022/04/06 04:11:43;;;;;;;1.88;0.60;;;-2.60;99.90;;;;;;5072016;28;20394;-88
2022/04/06 04:14:11;;;;;;;1.42;0.70;;;-2.60;99.90;;;;;;5056602;28;20390;-87
2022/04/06 04:16:38;;;;;;;1.00;0.60;;;-2.60;99.90;;;;;;5093318;28;20380;-87
2022/04/06 04:19:06;;;;;;;1.92;0.60;;;-2.60;99.90;;;;;;5093201;28;20420;-88
2022/04/06 04:21:34;;;;;;;1.58;0.60;;;-2.50;99.90;;;;;;5076556;28;20388;-87
2022/04/06 04:24:04;;;;;;;2.45;0.60;;;-2.50;99.90;;;;;;5076270;28;20424;-87
2022/04/06 04:26:34;;;;;;;1.77;0.80;;;-2.50;99.90;;;;;;5094185;28;20488;-88
2022/04/06 04:29:03;;;;;;;1.52;0.70;;;-2.50;99.90;;;;;;5076131;28;20392;-88
2022/04/06 04:31:31;;;;;;;0.65;0.50;;;-2.50;99.90;;;;;;5076387;28;20897;-86
2022/04/06 04:34:00;;;;;;;2.17;0.82;;;-2.50;99.90;;;;;;5076455;28;20851;-86
2022/04/06 04:36:28;;;;;;;1.45;0.70;;;-2.50;99.90;;;;;;5059659;28;20472;-87
2022/04/06 04:38:56;;;;;;;3.72;1.08;;;-2.50;99.90;;;;;;5075692;28;20389;-87
2022/04/06 04:41:24;;;;;;;1.33;0.60;;;-2.50;99.90;;;;;;5094010;28;20388;-87
2022/04/06 04:43:52;;;;;;;2.35;0.70;;;-2.50;99.90;;;;;;5092875;28;20399;-88
2022/04/06 04:46:20;;;;;;;1.90;0.80;;;-2.50;99.90;;;;;;5075914;28;20479;-87
2022/04/06 04:48:49;;;;;;;1.20;0.80;;;-2.50;99.90;;;;;;5072134;28;20405;-87
2022/04/06 04:51:16;;;;;;;1.92;0.70;;;-2.50;99.90;;;;;;5072097;28;20397;-87
2022/04/06 04:53:44;;;;;;;1.85;0.77;;;-2.50;99.90;;;;;;5072160;28;20389;-87
2022/04/06 04:56:12;;;;;;;2.60;0.93;;;-2.50;99.90;;;;;;5055550;28;20844;-88
2022/04/06 04:58:39;;;;;;;1.77;0.75;;;-2.50;99.90;;;;;;5088920;28;20515;-87
2022/04/06 05:01:08;;;;;;;1.25;0.60;;;-2.50;99.90;;;;;;5055920;28;20409;-87
2022/04/06 05:03:35;;;;;;;1.80;0.70;;;-2.50;99.90;;;;;;5088729;28;20394;-87
2022/04/06 05:06:04;;;;;;;1.60;0.80;;;-2.50;99.90;;;;;;5072059;28;20410;-87
2022/04/06 05:08:32;;;;;;;0.98;0.50;;;-2.60;99.90;;;;;;5073303;28;20382;-87
2022/04/06 05:11:00;;;;;;;3.27;0.80;;;-2.50;99.90;;;;;;5070967;28;20763;-86
2022/04/06 05:13:28;;;;;;;1.85;0.85;;;-2.60;99.90;;;;;;5073133;28;20475;-88
2022/04/06 05:15:56;;;;;;;1.85;0.73;;;-2.60;99.90;;;;;;5088586;28;20435;-87
2022/04/06 05:18:26;;;;;;;3.95;0.88;;;-2.60;99.90;;;;;;5072142;28;20439;-86
2022/04/06 05:20:53;;;;;;;2.85;0.80;;;-2.50;99.90;;;;;;5075002;28;20842;-86
2022/04/06 05:23:21;;;;;;;1.40;0.70;;;-2.50;99.90;;;;;;5075425;28;20878;-87
2022/04/06 05:25:49;;;;;;;2.55;0.93;;;-2.50;99.90;;;;;;5091913;28;20884;-87
2022/04/06 05:28:18;;;;;;;1.45;0.60;;;-2.50;99.90;;;;;;5075007;28;20775;-85
2022/04/06 05:30:46;;;;;;;2.97;0.80;;;-2.50;99.90;;;;;;5054278;28;20402;-87
2022/04/06 05:33:14;;;;;;;1.80;0.60;;;-2.50;99.90;;;;;;5058536;28;20396;-88
2022/04/06 05:35:42;;;;;;;1.00;0.60;;;-2.50;99.90;;;;;;5055994;28;20408;-87
2022/04/06 05:38:10;;;;;;;1.48;0.70;;;-2.50;99.90;;;;;;5067207;28;20493;-87
2022/04/06 05:40:37;;;;;;;2.05;0.63;;;-2.40;99.90;;;;;;5054976;28;20412;-87
2022/04/06 05:43:06;;;;;;;3.40;1.10;;;-2.40;99.90;;;;;;5084752;28;20499;-88
2022/04/06 05:45:33;;;;;;;1.70;0.60;;;-2.40;99.90;;;;;;5058191;28;20754;-87
2022/04/06 05:48:05;;;;;;;1.98;0.70;;;-2.40;99.90;;;;;;5058583;28;20397;-85
2022/04/06 05:50:33;;;;;;;2.38;0.70;;;-2.30;99.90;;;;;;5090723;28;20398;-86
2022/04/06 05:53:01;;;;;;;2.22;0.60;;;-2.30;99.90;;;;;;5091473;28;20392;-86
2022/04/06 05:55:28;;;;;;;1.53;0.70;;;-2.30;99.90;;;;;;5074580;28;20886;-86
2022/04/06 05:57:56;;;;;;;1.80;0.50;;;-2.30;99.90;;;;;;5086779;28;20398;-87
2022/04/06 06:00:23;;;;;;;1.80;0.50;;;-2.30;99.90;;;;;;5091549;28;20398;-86
2022/04/06 06:02:51;;;;;;;2.28;0.70;;;-2.30;99.90;;;;;;5074332;28;20395;-85
2022/04/06 06:05:19;;;;;;;1.60;0.60;;;-2.20;99.90;;;;;;5074683;28;20399;-86
2022/04/06 06:07:47;;;;;;;1.25;0.60;;;-2.20;99.90;;;;;;5074144;28;20411;-87
2022/04/06 06:10:14;;;;;;;1.85;0.60;;;-2.20;99.90;;;;;;5057994;28;20411;-87
2022/04/06 06:12:42;;;;;;;2.33;0.63;;;-2.10;99.90;;;;;;5057826;28;20431;-86
2022/04/06 06:15:10;;;;;;;3.05;0.60;;;-2.10;99.90;;;;;;5074328;28;20396;-86
2022/04/06 06:17:39;;;;;;;1.92;0.60;;;-2.20;99.90;;;;;;5090333;28;20392;-87
2022/04/06 06:20:07;;;;;;;3.10;0.60;;;-2.10;99.90;;;;;;5056656;28;20387;-87
2022/04/06 06:22:35;;;;;;;0.90;0.43;;;-2.10;99.90;;;;;;5089704;28;20385;-86
2022/04/06 06:25:03;;;;;;;1.73;0.70;;;-2.00;99.90;;;;;;5089855;28;20959;-86
2022/04/06 06:27:38;;;;;;;1.02;0.50;;;-2.00;99.90;;;;;;5089407;28;20403;-86
2022/04/06 06:30:07;;;;;;;3.30;0.63;;;-2.00;99.90;;;;;;5089450;28;20468;-86
2022/04/06 06:32:35;;;;;;;1.80;0.60;;;-1.90;99.90;;;;;;5089606;28;20389;-86
2022/04/06 06:35:03;;;;;;;2.20;0.80;;;-2.00;99.90;;;;;;5089753;28;20389;-86
2022/04/06 06:37:31;;;;;;;1.40;0.70;;;-1.90;99.90;;;;;;5057095;28;20392;-86
2022/04/06 06:39:59;;;;;;;1.73;0.70;;;-1.90;99.90;;;;;;5074073;28;20419;-85
2022/04/06 06:42:26;;;;;;;1.67;0.60;;;-1.80;99.90;;;;;;5091091;28;20870;-86
2022/04/06 06:44:54;;;;;;;1.47;0.70;;;-1.80;99.90;;;;;;5090806;28;20897;-87
2022/04/06 06:47:21;;;;;;;1.92;0.82;;;-1.70;99.90;;;;;;5074019;28;20397;-86
2022/04/06 06:49:49;;;;;;;2.67;0.75;;;-1.70;99.90;;;;;;5090844;28;20384;-86
2022/04/06 06:52:17;;;;;;;1.85;0.60;;;-1.70;99.90;;;;;;5073969;28;20432;-86
2022/04/06 06:54:45;;;;;;;2.77;0.77;;;-1.60;99.90;;;;;;5090801;28;20482;-86
2022/04/06 06:57:12;;;;;;;1.80;0.80;;;-1.50;99.90;;;;;;5090534;28;20487;-87
2022/04/06 06:59:41;;;;;;;2.42;0.82;;;-1.50;99.90;;;;;;5090575;28;20396;-86
2022/04/06 07:02:09;;;;;;;1.67;0.68;;;-1.50;99.90;;;;;;5059429;28;20400;-86
2022/04/06 07:04:37;;;;;;;2.35;0.90;;;-1.50;99.90;;;;;;5094459;28;20959;-86
2022/04/06 07:07:04;;;;;;;1.27;0.63;;;-1.40;99.90;;;;;;5094792;28;20407;-85
2022/04/06 07:09:33;;;;;;;2.42;0.80;;;-1.40;99.90;;;;;;5094939;28;20400;-87
2022/04/06 07:12:00;;;;;;;2.25;0.70;;;-1.30;99.90;;;;;;5094655;28;20863;-86
2022/04/06 07:14:28;;;;;;;1.40;0.70;;;-1.30;99.90;;;;;;5095759;28;20449;-86
2022/04/06 07:16:56;;;;;;;2.00;0.70;;;-1.20;99.90;;;;;;5095767;28;20380;-85
2022/04/06 07:19:24;;;;;;;1.40;0.65;;;-1.10;99.90;;;;;;5094430;28;20385;-87
2022/04/06 07:21:52;;;;;;;1.40;0.60;;;-1.10;99.90;;;;;;5077511;28;20761;-87
2022/04/06 07:24:19;;;;;;;2.45;0.70;;;-1.10;99.90;;;;;;5094701;28;20384;-85
2022/04/06 07:26:47;;;;;;;1.25;0.63;;;-1.00;99.90;;;;;;5094455;28;20432;-86
2022/04/06 07:29:15;;;;;;;2.57;0.90;;;-0.90;99.90;;;;;;5094618;28;20925;-86
2022/04/06 07:31:42;;;;;;;2.35;0.75;;;-1.00;99.90;;;;;;5095578;28;20463;-87
2022/04/06 07:34:11;;;;;;;1.80;0.73;;;-0.90;99.90;;;;;;5094281;28;20385;-86
2022/04/06 07:36:39;;;;;;;1.63;0.70;;;-0.80;99.90;;;;;;5060845;28;20897;-86
2022/04/06 07:39:07;;;;;;;1.60;0.65;;;-0.70;99.90;;;;;;5093819;28;20426;-86
2022/04/06 07:41:34;;;;;;;2.38;0.70;;;-0.70;99.90;;;;;;5095228;28;20388;-86
2022/04/06 07:44:02;;;;;;;2.05;0.80;;;-0.60;99.90;;;;;;5093927;28;20399;-86
2022/04/06 07:46:30;;;;;;;1.60;0.73;;;-0.60;99.90;;;;;;5076804;28;20388;-86
2022/04/06 07:48:58;;;;;;;1.20;0.60;;;-0.60;99.90;;;;;;5093822;28;20402;-87
2022/04/06 07:51:25;;;;;;;1.30;0.67;;;-0.50;99.90;;;;;;5093695;28;20400;-87
2022/04/06 07:53:53;;;;;;;1.00;0.65;;;-0.50;99.90;;;;;;5093609;28;20467;-86
2022/04/06 07:56:20;;;;;;;1.27;0.50;;;-0.40;99.90;;;;;;5093962;28;20381;-85
2022/04/06 07:58:48;;;;;;;2.03;0.73;;;-0.40;99.90;;;;;;5093499;28;20908;-86
2022/04/06 08:01:16;;;;;;;2.53;0.80;;;-0.30;99.90;;;;;;5093701;28;20412;-86
2022/04/06 08:03:43;;;;;;;1.65;0.60;;;-0.30;99.90;;;;;;5081016;28;20394;-86
2022/04/06 08:06:12;;;;;;;3.00;0.75;;;-0.20;99.90;;;;;;5053371;28;20932;-86
2022/04/06 08:08:40;;;;;;;2.50;0.90;;;-0.20;99.90;;;;;;5053185;28;20905;-87
2022/04/06 08:11:08;;;;;;;1.10;0.70;;;-0.10;99.90;;;;;;5069808;28;20878;-86
2022/04/06 08:13:36;;;;;;;3.38;0.80;;;-0.10;99.90;;;;;;5068768;28;20407;-87
2022/04/06 08:16:04;;;;;;;2.58;0.80;;;0.10;99.90;;;;;;5036751;28;20449;-86
2022/04/06 08:18:31;;;;;;;1.63;0.70;;;0.10;99.90;;;;;;5054387;28;20901;-86
2022/04/06 08:20:59;;;;;;;1.77;0.70;;;0.20;99.90;;;;;;5069606;28;20392;-87
2022/04/06 08:23:27;;;;;;;1.27;0.57;;;0.30;99.90;;;;;;5069598;28;20396;-86
2022/04/06 08:25:55;;;;;;;1.85;0.70;;;0.30;99.90;;;;;;5052830;28;20392;-86
2022/04/06 08:28:22;;;;;;;3.40;0.83;;;0.20;99.90;;;;;;5053202;28;20408;-86
2022/04/06 08:30:50;;;;;;;1.25;0.60;;;0.30;99.90;;;;;;5052902;28;20425;-86
2022/04/06 08:33:18;;;;;;;2.00;0.88;;;0.30;99.90;;;;;;5053099;28;20514;-86
2022/04/06 08:35:53;;;;;;;2.88;0.82;;;0.40;99.90;;;;;;5068368;28;20462;-86
2022/04/06 08:38:21;;;;;;;2.83;0.80;;;0.50;99.90;;;;;;5069382;28;20400;-87
2022/04/06 08:40:49;;;;;;;2.20;0.90;;;0.50;99.90;;;;;;5052684;28;20399;-86
2022/04/06 08:43:17;;;;;;;1.90;0.70;;;0.60;99.90;;;;;;5052872;28;20498;-86
2022/04/06 08:45:45;;;;;;;3.13;0.65;;;0.60;99.90;;;;;;5069268;28;20410;-86
2022/04/06 08:48:13;;;;;;;2.17;0.73;;;0.60;99.90;;;;;;5052522;28;20932;-86
2022/04/06 08:50:45;;;;;;;2.97;0.80;;;0.60;99.90;;;;;;5052579;28;20476;-87
2022/04/06 08:53:13;;;;;;;3.55;0.80;;;0.70;99.90;;;;;;5069209;28;20440;-87
2022/04/06 08:55:40;;;;;;;2.72;0.70;;;0.80;99.90;;;;;;5052482;28;20424;-86
2022/04/06 08:58:08;;;;;;;2.35;0.68;;;0.80;99.90;;;;;;5052393;28;20400;-87
2022/04/06 09:00:37;;;;;;;1.80;0.73;;;0.90;99.90;;;;;;5052448;28;20388;-86
2022/04/06 09:03:06;;;;;;;2.38;0.60;;;1.00;99.90;;;;;;5068519;28;20894;-86
2022/04/06 09:05:34;;;;;;;2.30;0.68;;;1.00;99.90;;;;;;5068953;28;20689;-86
2022/04/06 09:08:03;;;;;;;2.40;0.70;;;1.00;99.90;;;;;;5068621;28;20493;-87
2022/04/06 09:10:37;;;;;;;1.90;0.63;;;1.10;99.90;;;;;;5052162;28;20491;-87
2022/04/06 09:13:11;;;;;;;1.13;0.63;;;1.20;99.90;;;;;;5052293;28;20882;-87
2022/04/06 09:15:39;;;;;;;3.10;0.70;;;1.20;99.90;;;;;;5068403;28;20399;-86
2022/04/06 09:18:07;;;;;;;2.97;0.82;;;1.30;99.90;;;;;;5052013;28;20400;-87
2022/04/06 09:20:35;;;;;;;1.83;0.70;;;1.30;99.90;;;;;;5068622;28;20399;-87
2022/04/06 09:23:04;;;;;;;1.23;0.70;;;1.40;99.90;;;;;;5052011;28;20408;-87
2022/04/06 09:25:39;;;;;;;1.90;0.70;;;1.50;99.90;;;;;;5051899;28;20967;-88
2022/04/06 09:28:14;;;;;;;2.30;0.60;;;1.50;99.90;;;;;;5052894;28;20533;-86
2022/04/06 09:30:46;;;;;;;1.45;0.80;;;1.60;99.90;;;;;;5068397;28;20380;-86
2022/04/06 09:33:21;;;;;;;2.42;0.80;;;1.60;99.90;;;;;;5068034;28;20383;-86
2022/04/06 09:35:50;;;;;;;2.00;0.70;;;1.60;99.90;;;;;;5051676;28;20821;-86
2022/04/06 09:38:23;;;;;;;1.95;0.68;;;1.80;99.90;;;;;;5051476;28;20396;-87
2022/04/06 09:41:04;;;;;;;1.80;0.77;;;1.90;99.90;;;;;;5068070;28;20501;-87
2022/04/06 09:43:36;;;;;;;2.80;0.80;;;2.00;99.90;;;;;;5068124;28;20404;-87
2022/04/06 09:49:18;;;;;;;2.10;0.77;;;2.00;99.90;;;;;;5062522;28;20414;-87
2022/04/06 09:51:51;;;;;;;1.35;0.90;;;2.10;99.90;;;;;;5067950;28;20407;-85
2022/04/06 09:54:19;;;;;;;1.38;0.70;;;2.20;99.90;;;;;;5051230;28;20486;-86
2022/04/06 09:56:47;;;;;;;2.53;1.00;;;2.20;99.90;;;;;;5051469;28;20423;-85
2022/04/06 09:59:15;;;;;;;1.85;0.80;;;2.20;99.90;;;;;;5051279;28;20399;-87
2022/04/06 10:01:48;;;;;;;1.52;0.77;;;2.20;99.90;;;;;;5051320;28;21012;-87
2022/04/06 10:04:25;;;;;;;2.05;0.70;;;2.20;99.90;;;;;;5051207;28;20395;-87
2022/04/06 10:06:56;;;;;;;1.60;0.80;;;2.40;99.90;;;;;;5051053;28;20400;-87
2022/04/06 10:09:25;;;;;;;2.22;0.77;;;2.40;99.90;;;;;;5051185;28;20486;-89
2022/04/06 10:11:57;;;;;;;2.55;0.85;;;2.40;99.90;;;;;;5050089;28;20886;-88
2022/04/06 10:14:26;;;;;;;1.70;0.70;;;2.50;99.90;;;;;;5036135;28;20399;-86
2022/04/06 10:16:57;;;;;;;1.90;0.90;;;2.50;99.90;;;;;;5052048;28;20387;-87
2022/04/06 10:19:39;;;;;;;2.67;0.80;;;2.50;99.90;;;;;;5051056;28;20431;-87
2022/04/06 10:22:29;;;;;;;2.13;0.80;;;2.30;99.90;;;;;;5041939;28;20470;-87
2022/04/06 10:25:08;;;;;;;1.20;0.70;;;2.30;99.90;;;;;;5030856;28;20394;-87
2022/04/06 10:27:56;;;;;;;2.28;0.75;;;2.30;99.90;;;;;;5031064;28;20476;-89
2022/04/06 10:30:26;;;;;;;1.27;0.60;;;2.40;99.90;;;;;;5062134;28;20392;-87
2022/04/06 10:32:58;;;;;;;1.10;0.60;;;2.60;99.90;;;;;;5067619;28;20484;-88
2022/04/06 10:35:32;;;;;;;1.95;0.70;;;2.60;99.90;;;;;;5050688;28;20392;-89
2022/04/06 10:38:02;;;;;;;2.42;0.80;;;2.60;99.90;;;;;;5050271;28;20442;-89
2022/04/06 10:41:05;;;;;;;1.55;0.80;;;2.60;99.90;;;;;;5050615;28;20400;-86
2022/04/06 10:43:50;;;;;;;2.85;0.80;;;2.50;99.90;;;;;;5047576;28;20778;-87
2022/04/06 10:46:35;;;;;;;1.52;0.70;;;2.50;99.90;;;;;;5051951;28;20397;-87
2022/04/06 10:49:06;;;;;;;1.20;0.70;;;2.30;99.90;;;;;;5067311;28;20403;-89
2022/04/06 10:51:37;;;;;;;2.25;0.80;;;2.40;99.90;;;;;;5049633;28;20453;-86
2022/04/06 10:54:13;;;;;;;1.83;0.90;;;2.60;99.90;;;;;;5043124;28;20413;-86
2022/04/06 10:56:54;;;;;;;0.88;0.60;;;2.60;99.90;;;;;;5049481;28;20414;-87
2022/04/06 10:59:24;;;;;;;1.33;0.50;;;2.70;99.90;;;;;;5048924;28;20865;-87
2022/04/06 11:02:27;;;;;;;1.40;0.57;;;2.90;99.90;;;;;;5047836;28;20792;-88
2022/04/06 11:04:56;;;;;;;0.88;0.50;;;2.90;99.90;;;;;;5048238;28;20494;-88
2022/04/06 11:10:24;;;;;;;0.93;0.57;;;2.90;99.90;;;;;;5045310;28;20480;-88
2022/04/06 11:13:06;;;;;;;1.80;0.70;;;2.80;99.90;;;;;;5042690;28;20488;-88
2022/04/06 11:15:40;;;;;;;2.23;0.60;;;2.90;99.90;;;;;;5051403;28;20410;-87
2022/04/06 11:18:49;;;;;;;1.50;0.65;;;3.20;98.80;;;;;;5040238;28;20411;-88
2022/04/06 11:21:17;;;;;;;1.20;0.60;;;3.30;99.20;;;;;;5041084;28;20498;-88
2022/04/06 11:23:45;;;;;;;1.95;0.60;;;3.40;99.90;;;;;;5030245;28;20888;-89
2022/04/06 11:26:12;;;;;;;0.85;0.50;;;3.50;98.70;;;;;;5049269;28;20902;-89
2022/04/06 11:28:41;;;;;;;0.77;0.50;;;3.60;98.70;;;;;;5050094;28;20423;-89
2022/04/06 11:31:09;;;;;;;2.30;0.50;;;3.60;98.60;;;;;;5050288;28;20392;-87
2022/04/06 11:33:42;;;;;;;0.75;0.30;;;3.50;96.40;;;;;;5046455;28;20796;-89
2022/04/06 11:36:18;;;;;;;1.42;0.40;;;3.50;93.90;;;;;;5013994;28;20401;-89
2022/04/06 11:38:50;;;;;;;1.33;0.40;;;3.50;95.20;;;;;;5013957;28;20472;-89
2022/04/06 11:41:19;;;;;;;2.25;0.50;;;3.40;94.60;;;;;;5030286;28;20896;-86
2022/04/06 11:43:50;;;;;;;1.88;0.52;;;3.40;94.10;;;;;;5030219;28;20409;-89
2022/04/06 11:46:19;;;;;;;1.33;0.40;;;3.50;95.60;;;;;;5030356;28;20389;-89
2022/04/06 11:48:47;;;;;;;0.73;0.40;;;3.50;93.40;;;;;;5032710;28;20397;-89
2022/04/06 11:51:16;;;;;;;1.15;0.40;;;3.50;91.60;;;;;;5050081;28;20389;-89
2022/04/06 11:53:44;;;;;;;0.60;0.43;;;3.40;91.30;;;;;;5034968;28;20392;-90
2022/04/06 11:56:12;;;;;;;0.90;0.40;;;3.50;91.60;;;;;;5033745;28;20756;-88
2022/04/06 11:58:43;;;;;;;1.75;0.57;;;3.60;92.70;;;;;;5050215;28;20393;-88
2022/04/06 12:01:17;;;;;;;0.73;0.40;;;3.50;92.10;;;;;;5033679;28;20401;-86
2022/04/06 12:03:46;;;;;;;1.65;0.45;;;3.40;93.80;;;;;;5053606;28;20406;-89
2022/04/06 12:06:16;;;;;;;0.50;0.40;;;3.40;94.90;;;;;;5057886;28;20215;-89
2022/04/06 12:08:46;;;;;;;0.52;0.43;;;3.50;94.70;;;;;;5074376;28;20212;-89
2022/04/06 12:11:19;;;;;;;2.05;0.45;;;3.70;94.20;;;;;;5041167;28;20201;-89
2022/04/06 12:13:46;;;;;;;1.50;0.57;;;3.70;94.60;;;;;;5075454;28;20165;-88
2022/04/06 12:16:14;;;;;;;0.90;0.40;;;3.80;94.50;;;;;;5041062;28;20192;-88
2022/04/06 12:18:43;;;;;;;0.85;0.50;;;3.90;94.60;;;;;;5075488;28;20184;-89
2022/04/06 12:21:21;;;;;;;1.17;0.57;;;3.90;94.70;;;;;;5074207;28;20246;-89
2022/04/06 12:23:51;;;;;;;1.95;0.77;;;3.90;94.80;;;;;;5040923;28;20196;-89
2022/04/06 12:26:21;;;;;;;2.75;0.55;;;3.90;93.50;;;;;;5074485;28;20264;-89
2022/04/06 12:28:56;;;;;;;1.25;0.50;;;3.70;94.00;;;;;;5083957;28;20208;-89
2022/04/06 12:31:42;;;;;;;1.25;0.50;;;3.70;95.00;;;;;;5077482;28;20191;-89
2022/04/06 12:34:30;;;;;;;2.20;0.60;;;3.70;94.00;;;;;;5061051;28;20767;-89
2022/04/06 12:36:58;;;;;;;1.00;0.50;;;3.80;96.50;;;;;;5077625;28;20193;-88
2022/04/06 12:39:26;;;;;;;3.17;0.70;;;3.80;96.30;;;;;;5077629;28;20192;-88
2022/04/06 12:41:57;;;;;;;0.55;0.40;;;4.00;95.10;;;;;;5060408;28;20199;-89
2022/04/06 12:44:26;;;;;;;2.70;0.50;;;4.10;94.20;;;;;;5060693;28;20192;-89
2022/04/06 12:46:54;;;;;;;2.90;0.50;;;4.20;94.70;;;;;;5077135;28;20689;-89
2022/04/06 12:49:36;;;;;;;1.50;0.57;;;4.20;94.80;;;;;;5077101;28;20208;-89
2022/04/06 12:52:24;;;;;;;4.07;0.60;;;4.10;94.00;;;;;;5076781;28;20207;-89
2022/04/06 12:55:00;;;;;;;1.35;0.65;;;4.20;94.40;;;;;;5077211;28;20187;-88
2022/04/06 12:57:27;;;;;;;3.20;0.60;;;4.20;95.20;;;;;;5093618;28;20549;-88
2022/04/06 12:59:57;;;;;;;1.30;0.47;;;4.30;94.60;;;;;;5054418;28;20192;-88
2022/04/06 13:02:29;;;;;;;2.67;0.50;;;4.30;95.80;;;;;;5065469;28;20195;-89
2022/04/06 13:05:01;;;;;;;3.33;0.50;;;4.50;94.10;;;;;;5093363;28;20693;-88
2022/04/06 13:07:30;;;;;;;1.33;0.57;;;4.60;94.60;;;;;;5076855;28;20188;-87
2022/04/06 13:10:06;;;;;;;2.72;0.57;;;4.70;94.30;;;;;;5094923;28;20218;-88
2022/04/06 13:12:34;;;;;;;1.20;0.47;;;4.70;93.70;;;;;;5094688;28;20213;-88